Decoded Metar for KNSE (MILTON in FL, USA) (IATA:NSE) | Meteo·Mobile Aviation Weather
aviador You're here:

KNSE Decoded Metar

MILTON in FL, USA
Report Time2018-09-24 17:56:00
UTC Time2018-09-24 19:02:15
Flight Rules vfr VFR
Wind130° at 05 kt
W.Decomp.*RWY 14: 5.0 kt HW 0.7 kt LCW
RWY 05: 0.7 kt HW 5.0 kt RCW
W.Rank130° ranks 14
Current wind is below 130° avg. (6.6)
Visibility9999 m
Phenomena:N/A
Clouds:Few 024 Hf
Scattered 035 Hf
Broken 090 Hf
Broken 250 Hf
Expected CloudBase > 800 ft AGL from Temp-Dew spread
Ceiling9,000 ft
Temp26°C (ISA +11)
Dew Point24°C (89% RH)
QNH1017 hPa
Density Alt1,775 ft
Elevation200 ft
Report Wrong Elevation
Raw Report
KNSE 241756Z 13005KT 10SM FEW024 SCT035 BKN090 BKN250 26/24 A3003
RMK AO2 SLP152 OCNL LTGICCG DSNT E RAE22 CB DSNT E T1 SET
P0000 60002 T02560239 10267 20228 58006 $=

Extra information for KNSE:More info

Metar Taf Metar & Taf Last 4 Metars F.Rules Stats Wind Profile Meteogram Temp Stats Airport Information Weather charts Add Link Nearby VenuesMetar ALERT Operation Metar Decoded Social comments

AIRNAV info for KNSE